Time;durP1;ratioP1;P1;durP2;ratioP2;P2;SDS_P1;SDS_P2;PMS_P1;PMS_P2;Temp;Humidity;BMP_temperature;BMP_pressure;BME280_temperature;BME280_humidity;BME280_pressure;Samples;Min_cycle;Max_cycle;Signal;HPM_P1;HPM_P2
2022/02/08 00:02:02;;;;;;;3.30;3.20;;;;;;;4.64;78.80;102249.06;5960289;24;20087;-68
2022/02/08 00:04:29;;;;;;;3.20;3.10;;;;;;;5.10;78.58;102319.16;5939859;24;20032;-68
2022/02/08 00:07:00;;;;;;;3.30;3.20;;;;;;;4.59;78.98;102235.19;5962862;24;20026;-69
2022/02/08 00:09:27;;;;;;;4.80;4.60;;;;;;;5.19;78.95;102316.53;5916663;24;20047;-69
2022/02/08 00:11:53;;;;;;;3.30;3.20;;;;;;;5.24;80.43;102310.44;5958661;24;20016;-68
2022/02/08 00:14:20;;;;;;;3.45;3.33;;;;;;;4.28;79.50;102146.06;5942961;24;20117;-68
2022/02/08 00:16:47;;;;;;;3.58;3.47;;;;;;;5.00;80.33;102260.22;5962032;24;20027;-68
2022/02/08 00:19:13;;;;;;;3.92;3.72;;;;;;;5.42;80.85;102315.56;5936841;24;20501;-67
2022/02/08 00:21:40;;;;;;;4.43;4.22;;;;;;;4.93;81.23;102240.28;5973137;24;20024;-68
2022/02/08 00:24:06;;;;;;;3.20;3.10;;;;;;;5.19;82.34;102274.00;5968521;24;20047;-67
2022/02/08 00:26:33;;;;;;;4.90;4.70;;;;;;;5.43;82.88;102308.63;5960447;24;20048;-68
2022/02/08 00:28:59;;;;;;;3.10;3.00;;;;;;;5.41;83.84;102313.81;5919506;24;20043;-67
2022/02/08 00:31:26;;;;;;;5.15;4.95;;;;;;;5.23;85.02;102269.66;5955861;24;20020;-68
2022/02/08 00:33:52;;;;;;;3.30;3.20;;;;;;;4.97;85.43;102232.50;5944293;24;20040;-68
2022/02/08 00:36:19;;;;;;;3.28;3.17;;;;;;;5.41;86.39;102298.22;5959806;24;20031;-68
2022/02/08 00:38:46;;;;;;;3.30;3.20;;;;;;;5.27;85.85;102281.78;5944188;24;20024;-68
2022/02/08 00:41:13;;;;;;;3.13;3.03;;;;;;;5.34;85.35;102299.13;5966362;24;20034;-67
2022/02/08 00:43:55;;;;;;;4.28;4.07;;;;;;;4.43;85.36;102137.34;5944738;24;20095;-68
2022/02/08 00:49:09;;;;;;;3.30;3.20;;;;;;;5.23;87.33;102277.47;5949082;24;20111;-67
2022/02/08 00:51:43;;;;;;;4.95;4.75;;;;;;;5.24;86.81;102300.03;5965592;24;20023;-68
2022/02/08 00:54:10;;;;;;;3.10;3.00;;;;;;;5.20;87.68;102289.63;5937929;24;20016;-67
2022/02/08 00:56:37;;;;;;;4.15;3.95;;;;;;;5.17;87.65;102287.06;5966249;24;20020;-68
2022/02/08 00:59:04;;;;;;;3.25;3.15;;;;;;;4.77;89.42;102237.78;5938763;24;20501;-68
2022/02/08 01:01:34;;;;;;;5.03;4.82;;;;;;;5.03;90.90;102290.56;5961964;23;20130;-67
2022/02/08 01:04:01;;;;;;;3.22;3.13;;;;;;;4.50;91.06;102224.84;5948382;24;20704;-67
2022/02/08 01:06:28;;;;;;;4.82;4.63;;;;;;;4.25;92.75;102206.69;5963713;24;20039;-68
2022/02/08 01:09:06;;;;;;;3.30;3.20;;;;;;;4.75;92.82;102281.13;5946386;24;20091;-67
2022/02/08 01:11:33;;;;;;;5.05;4.85;;;;;;;4.59;94.05;102254.28;5951936;24;20015;-67
2022/02/08 01:13:59;;;;;;;3.10;3.00;;;;;;;4.76;93.80;102306.25;5945582;24;20016;-67
2022/02/08 01:16:26;;;;;;;4.93;4.72;;;;;;;4.76;95.21;102298.44;5951942;24;20371;-68
2022/02/08 01:18:55;;;;;;;3.28;3.17;;;;;;;3.36;95.32;102075.19;5967591;23;20016;-68
2022/02/08 01:21:23;;;;;;;3.40;3.30;;;;;;;4.74;95.60;102302.78;5936841;24;20044;-68
2022/02/08 01:23:49;;;;;;;3.30;3.20;;;;;;;4.76;96.06;102306.25;5966830;23;20036;-68
2022/02/08 01:26:18;;;;;;;3.03;2.92;;;;;;;4.66;97.35;102282.88;5915084;24;20433;-68
2022/02/08 01:31:19;;;;;;;3.17;3.08;;;;;;;4.82;97.45;102301.91;5950056;24;20036;-68
2022/02/08 01:36:40;;;;;;;5.05;4.85;;;;;;;4.84;97.80;102297.56;5940447;24;20008;-68
2022/02/08 01:39:14;;;;;;;3.00;2.90;;;;;;;4.79;98.42;102285.44;5963412;24;20520;-68
2022/02/08 01:51:50;;;;;;;;;;;;;;;4.88;100.00;102286.28;5939856;24;20024;-67
2022/02/08 01:54:16;;;;;;;2.90;2.80;;;;;;;4.53;100.00;102217.91;5952435;24;19922;-67
2022/02/08 01:56:43;;;;;;;3.90;3.70;;;;;;;4.20;99.85;102157.31;5961081;24;20465;-68
2022/02/08 01:59:10;;;;;;;3.00;2.90;;;;;;;4.94;100.00;102279.31;5945403;24;20032;-68
2022/02/08 02:01:37;;;;;;;4.70;4.50;;;;;;;4.44;100.00;102186.72;5956904;24;20023;-67
2022/02/08 02:04:03;;;;;;;3.25;3.15;;;;;;;4.98;100.00;102282.78;5944874;24;20087;-68
2022/02/08 02:06:41;;;;;;;5.00;4.78;;;;;;;4.98;100.00;102273.22;5933867;24;20050;-67
2022/02/08 02:09:07;;;;;;;3.03;2.92;;;;;;;4.93;100.00;102246.38;5934372;24;20020;-67
2022/02/08 02:11:34;;;;;;;4.57;4.38;;;;;;;4.95;100.00;102261.97;5937795;24;20593;-68
2022/02/08 02:14:01;;;;;;;3.30;3.20;;;;;;;5.12;100.00;102277.53;5946797;24;20035;-68
2022/02/08 02:18:59;;;;;;;3.10;3.00;;;;;;;5.13;100.00;102261.03;5944326;23;20059;-68
2022/02/08 02:21:27;;;;;;;5.25;5.05;;;;;;;4.97;100.00;102240.31;5968416;23;20028;-68
2022/02/08 02:23:54;;;;;;;3.25;3.15;;;;;;;4.73;100.00;102185.75;5945623;24;20028;-67
2022/02/08 02:26:20;;;;;;;3.10;3.00;;;;;;;4.70;99.86;102162.38;5966728;24;20042;-68
2022/02/08 02:28:48;;;;;;;3.20;3.10;;;;;;;5.25;100.00;102249.69;5944973;24;20028;-67
2022/02/08 02:31:17;;;;;;;3.17;3.08;;;;;;;4.78;100.00;102169.25;5966203;23;20095;-67
2022/02/08 02:33:44;;;;;;;3.00;2.90;;;;;;;5.30;100.00;102264.44;5950885;24;20087;-68
2022/02/08 02:36:13;;;;;;;3.30;3.20;;;;;;;5.24;100.00;102255.78;5963962;24;20039;-68
2022/02/08 02:38:39;;;;;;;3.70;3.60;;;;;;;4.69;99.61;102158.91;5942808;24;20390;-68
2022/02/08 02:41:06;;;;;;;3.10;3.00;;;;;;;5.24;100.00;102237.56;5971719;24;20037;-68
2022/02/08 02:43:33;;;;;;;5.05;4.85;;;;;;;5.26;100.00;102231.47;5933252;24;20040;-67
2022/02/08 02:46:02;;;;;;;3.35;3.25;;;;;;;5.29;100.00;102231.47;5969564;24;20034;-69
2022/02/08 02:48:29;;;;;;;4.95;4.75;;;;;;;4.93;99.76;102160.53;5952832;24;20087;-68
2022/02/08 02:50:55;;;;;;;3.30;3.20;;;;;;;4.99;100.00;102181.31;5970377;23;20032;-68
2022/02/08 02:53:23;;;;;;;3.53;3.42;;;;;;;4.88;100.00;102167.47;5939247;24;20020;-67
2022/02/08 02:55:50;;;;;;;3.33;3.22;;;;;;;5.39;100.00;102224.44;5966744;24;20496;-67
2022/02/08 02:58:17;;;;;;;3.40;3.30;;;;;;;5.43;99.79;102230.50;5960843;24;20036;-68
2022/02/08 03:00:52;;;;;;;3.35;3.25;;;;;;;5.43;100.00;102226.16;5944719;24;20024;-67
2022/02/08 03:03:31;;;;;;;3.25;3.15;;;;;;;5.46;100.00;102231.38;5962587;23;20457;-68
2022/02/08 03:17:27;;;;;;;3.20;3.10;;;;;;;5.51;100.00;102223.50;5946227;24;20067;-67
2022/02/08 03:19:47;;;;;;;3.30;3.20;;;;;;;5.62;100.00;102239.09;5962165;23;20031;-67
2022/02/08 03:22:14;;;;;;;3.58;3.47;;;;;;;5.16;100.00;102159.53;5946521;24;20079;-68
2022/02/08 03:24:40;;;;;;;3.10;3.00;;;;;;;5.64;100.00;102261.63;5963127;23;20012;-68
2022/02/08 03:27:06;;;;;;;3.20;3.10;;;;;;;5.64;100.00;102227.78;5947995;24;20032;-68
2022/02/08 03:29:33;;;;;;;4.97;4.78;;;;;;;5.67;100.00;102238.16;5967048;24;20028;-68
2022/02/08 03:31:59;;;;;;;3.35;3.25;;;;;;;5.64;100.00;102232.13;5943432;24;20020;-68
2022/02/08 03:34:25;;;;;;;4.68;4.47;;;;;;;5.67;100.00;102238.16;5969754;23;20023;-68
2022/02/08 03:36:52;;;;;;;3.40;3.30;;;;;;;5.67;100.00;102248.56;5941807;24;20032;-67
2022/02/08 03:39:24;;;;;;;3.53;3.42;;;;;;;5.67;100.00;102232.94;5967160;24;20028;-67
2022/02/08 03:41:54;;;;;;;3.45;3.35;;;;;;;5.72;100.00;102230.34;5942150;24;20091;-68
2022/02/08 03:44:30;;;;;;;3.63;3.50;;;;;;;5.75;100.00;102238.09;5961323;24;20112;-66
2022/02/08 03:46:56;;;;;;;3.30;3.20;;;;;;;5.79;100.00;102234.59;5948419;24;20108;-68
2022/02/08 03:49:23;;;;;;;4.45;4.28;;;;;;;5.77;100.00;102242.44;5966553;24;20035;-68
2022/02/08 03:51:52;;;;;;;3.33;3.22;;;;;;;5.78;100.00;102240.69;5972528;24;20051;-68
2022/02/08 03:54:19;;;;;;;3.30;3.20;;;;;;;5.81;100.00;102240.66;5942955;24;20036;-68
2022/02/08 03:56:46;;;;;;;3.40;3.30;;;;;;;5.85;100.00;102239.75;5955813;23;20026;-69
2022/02/08 03:59:14;;;;;;;3.25;3.15;;;;;;;5.89;100.00;102248.44;5948495;24;20099;-68
2022/02/08 04:04:32;;;;;;;3.50;3.40;;;;;;;5.89;100.00;102248.44;5944870;24;20020;-68
2022/02/08 04:07:06;;;;;;;3.50;3.40;;;;;;;5.66;100.00;102210.41;5973254;23;20087;-68
2022/02/08 04:09:32;;;;;;;5.25;5.05;;;;;;;5.92;100.00;102251.88;5948580;24;20020;-67
2022/02/08 04:12:04;;;;;;;3.50;3.40;;;;;;;5.70;100.00;102212.09;5961827;24;20020;-68
2022/02/08 04:17:03;;;;;;;3.50;3.40;;;;;;;5.97;100.00;102246.66;5966521;24;20030;-68
2022/02/08 04:19:37;;;;;;;4.78;4.57;;;;;;;5.98;100.00;102254.47;5944317;24;20044;-68
2022/02/08 04:33:30;;;;;;;3.30;3.20;;;;;;;5.44;100.00;102168.03;5947040;24;20098;-68
2022/02/08 04:36:07;;;;;;;3.25;3.15;;;;;;;5.60;100.00;102184.41;5964806;24;20095;-68
2022/02/08 04:38:48;;;;;;;5.05;4.85;;;;;;;6.08;100.00;102255.25;5915978;24;20351;-68
2022/02/08 04:41:19;;;;;;;3.50;3.35;;;;;;;5.90;100.00;102224.97;5932731;24;20035;-68
2022/02/08 04:43:56;;;;;;;3.35;3.25;;;;;;;5.50;100.00;102154.09;5942266;24;20016;-68
2022/02/08 04:46:43;;;;;;;4.20;4.03;;;;;;;4.91;100.00;102081.63;5968892;24;20566;-67
2022/02/08 04:49:10;;;;;;;3.30;3.20;;;;;;;6.10;100.00;102252.66;5944437;24;20016;-67
2022/02/08 04:51:42;;;;;;;4.97;4.78;;;;;;;6.11;100.00;102259.56;5957739;24;20462;-67
2022/02/08 04:54:22;;;;;;;3.50;3.40;;;;;;;6.16;100.00;102260.41;5941091;24;20651;-69
2022/02/08 04:57:03;;;;;;;3.45;3.35;;;;;;;5.98;100.00;102227.56;5942782;24;20022;-68
2022/02/08 05:27:11;;;;;;;4.00;3.80;;;;;;;5.73;100.00;102186.03;5966977;24;20474;-68
2022/02/08 05:40:36;;;;;;;4.97;4.78;;;;;;;6.24;100.00;102271.63;5951940;24;20477;-68
2022/02/08 05:43:27;;;;;;;3.40;3.30;;;;;;;6.27;100.00;102261.16;5973331;24;20022;-68
2022/02/08 05:48:31;;;;;;;4.40;4.20;;;;;;;5.77;100.00;102172.13;5963768;23;20604;-68
2022/02/08 05:51:02;;;;;;;3.30;3.20;;;;;;;5.76;100.00;102172.97;5924206;24;20383;-68
2022/02/08 05:53:31;;;;;;;3.40;3.30;;;;;;;6.14;100.00;102233.50;5933034;24;20032;-68
2022/02/08 05:55:57;;;;;;;3.17;3.08;;;;;;;6.31;100.00;102262.88;5929086;24;20496;-68
2022/02/08 05:58:25;;;;;;;4.15;3.97;;;;;;;6.31;100.00;102270.69;5966784;24;20028;-67
2022/02/08 06:00:52;;;;;;;3.30;3.20;;;;;;;6.30;100.00;102268.97;5945663;24;20020;-67
2022/02/08 06:03:23;;;;;;;3.75;3.63;;;;;;;6.31;100.00;102278.50;5961501;23;20024;-67
2022/02/08 06:05:50;;;;;;;3.70;3.55;;;;;;;6.30;100.00;102276.78;5941656;24;20322;-68
2022/02/08 06:08:16;;;;;;;3.63;3.42;;;;;;;6.25;100.00;102255.09;5966626;24;20110;-67
2022/02/08 06:10:50;;;;;;;3.50;3.40;;;;;;;6.30;100.00;102266.38;5914098;24;20034;-68
2022/02/08 06:13:18;;;;;;;3.33;3.22;;;;;;;6.30;100.00;102265.50;5969810;24;20031;-67
2022/02/08 06:15:46;;;;;;;3.42;3.33;;;;;;;6.29;100.00;102262.00;5914257;24;20099;-67
2022/02/08 06:18:12;;;;;;;3.47;3.38;;;;;;;6.12;100.00;102232.66;5967063;23;20074;-68
2022/02/08 06:20:38;;;;;;;4.78;4.57;;;;;;;6.28;100.00;102260.28;5938861;24;20787;-67
2022/02/08 06:23:05;;;;;;;3.50;3.40;;;;;;;5.85;100.00;102189.41;5955989;24;20587;-68
2022/02/08 06:25:32;;;;;;;5.45;5.25;;;;;;;6.27;100.00;102255.94;5938522;24;20473;-68
2022/02/08 06:27:59;;;;;;;3.40;3.30;;;;;;;5.80;100.00;102179.88;5962243;24;20038;-68
2022/02/08 06:30:26;;;;;;;5.07;4.88;;;;;;;6.13;100.00;102235.25;5939999;24;20504;-68
2022/02/08 06:32:55;;;;;;;3.55;3.45;;;;;;;5.88;100.00;102189.38;5970484;24;20027;-68
2022/02/08 06:35:26;;;;;;;3.60;3.50;;;;;;;5.84;100.00;102172.91;5935627;24;20040;-68
2022/02/08 06:37:57;;;;;;;3.35;3.25;;;;;;;6.32;100.00;102258.53;5948612;24;20047;-68
2022/02/08 06:40:23;;;;;;;3.75;3.60;;;;;;;5.84;100.00;102185.09;5938059;24;20256;-68
2022/02/08 06:42:49;;;;;;;3.70;3.60;;;;;;;6.32;100.00;102256.78;5961572;24;20091;-67
2022/02/08 06:45:17;;;;;;;3.10;3.00;;;;;;;6.07;100.00;102205.75;5944853;24;20020;-67
2022/02/08 06:47:50;;;;;;;3.63;3.53;;;;;;;5.92;100.00;102175.47;5965148;24;20028;-68
2022/02/08 06:50:17;;;;;;;3.33;3.22;;;;;;;6.43;100.00;102255.81;5943640;24;20028;-68
2022/02/08 06:52:43;;;;;;;3.50;3.40;;;;;;;6.45;100.00;102260.13;5962930;24;20411;-69
2022/02/08 06:55:10;;;;;;;3.50;3.40;;;;;;;6.44;100.00;102263.63;5937041;24;20035;-68
2022/02/08 06:57:49;;;;;;;4.72;4.53;;;;;;;6.45;100.00;102259.28;5961534;23;20019;-67
2022/02/08 07:00:21;;;;;;;3.70;3.50;;;;;;;6.47;100.00;102254.91;5939595;24;20031;-67
2022/02/08 07:02:51;;;;;;;3.70;3.60;;;;;;;6.46;100.00;102250.59;5964849;24;20098;-68
2022/02/08 07:05:18;;;;;;;5.43;5.22;;;;;;;6.55;100.00;102250.47;5937357;24;20024;-69
2022/02/08 07:07:44;;;;;;;3.63;3.53;;;;;;;6.56;100.00;102260.03;5940158;24;20657;-70
2022/02/08 07:10:11;;;;;;;3.47;3.38;;;;;;;6.56;100.00;102254.81;5963993;24;20107;-71
2022/02/08 07:12:39;;;;;;;3.70;3.60;;;;;;;6.25;100.00;102213.38;5936024;24;20016;-70
2022/02/08 07:15:12;;;;;;;3.72;3.58;;;;;;;6.63;100.00;102253.00;5960072;24;20075;-69
2022/02/08 07:17:39;;;;;;;4.57;4.38;;;;;;;6.68;100.00;102266.88;5932800;24;20355;-70
2022/02/08 07:20:06;;;;;;;3.70;3.60;;;;;;;6.26;100.00;102201.25;5964593;24;20100;-71
2022/02/08 07:22:33;;;;;;;3.90;3.75;;;;;;;6.68;100.00;102278.16;5937279;24;20024;-72
2022/02/08 07:24:59;;;;;;;3.90;3.70;;;;;;;6.61;100.00;102260.84;5958330;24;20321;-69
2022/02/08 07:27:27;;;;;;;5.57;5.28;;;;;;;6.75;100.00;102279.81;5939612;24;20063;-69
2022/02/08 07:29:54;;;;;;;4.25;4.05;;;;;;;6.77;100.00;102267.59;5938166;24;20026;-69
2022/02/08 07:32:32;;;;;;;3.97;3.85;;;;;;;6.49;100.00;102220.09;5921197;24;20024;-71
2022/02/08 07:37:46;;;;;;;3.60;3.50;;;;;;;6.66;100.00;102222.53;5936044;24;20051;-70
2022/02/08 07:40:28;;;;;;;3.60;3.50;;;;;;;6.95;100.00;102278.72;5972394;23;20387;-69
2022/02/08 07:42:55;;;;;;;3.70;3.60;;;;;;;6.99;100.00;102280.41;5901516;24;20287;-70
2022/02/08 07:45:23;;;;;;;3.60;3.50;;;;;;;6.97;100.00;102280.44;5970769;23;20232;-70
2022/02/08 07:47:51;;;;;;;4.28;4.07;;;;;;;7.01;100.00;102291.72;5911435;24;20031;-69
2022/02/08 07:50:21;;;;;;;3.60;3.50;;;;;;;7.07;100.00;102277.72;5960622;24;20031;-71
2022/02/08 07:52:52;;;;;;;4.72;4.53;;;;;;;6.40;100.00;102186.31;5965753;24;20132;-70
2022/02/08 07:55:22;;;;;;;3.70;3.60;;;;;;;7.17;100.00;102276.72;5942120;24;20036;-70
2022/02/08 07:57:49;;;;;;;4.43;4.22;;;;;;;6.99;100.00;102265.63;5959381;24;20035;-71
2022/02/08 08:00:16;;;;;;;3.83;3.72;;;;;;;6.86;100.00;102235.34;5931660;24;20031;-71
2022/02/08 08:02:44;;;;;;;5.55;5.35;;;;;;;6.95;100.00;102248.25;5931311;24;20030;-71
2022/02/08 08:05:10;;;;;;;3.78;3.67;;;;;;;7.23;100.00;102284.47;5935638;24;20052;-71
2022/02/08 08:07:37;;;;;;;5.65;5.38;;;;;;;7.30;100.00;102283.53;5964000;24;20035;-72
2022/02/08 08:10:06;;;;;;;4.00;3.80;;;;;;;7.39;100.00;102282.53;5927311;24;20028;-72
2022/02/08 08:12:34;;;;;;;5.57;5.28;;;;;;;7.08;100.00;102230.72;5962101;24;20018;-72
2022/02/08 08:15:09;;;;;;;3.65;3.55;;;;;;;6.11;100.00;102069.31;5967628;24;20267;-69
2022/02/08 08:17:52;;;;;;;5.38;5.15;;;;;;;7.49;100.00;102278.91;5928350;24;20319;-72
2022/02/08 08:20:19;;;;;;;3.70;3.60;;;;;;;7.45;100.00;102285.06;5957354;24;20055;-69
2022/02/08 08:22:46;;;;;;;5.45;5.25;;;;;;;7.40;100.00;102266.00;5964228;23;20043;-72
2022/02/08 08:25:12;;;;;;;3.80;3.70;;;;;;;7.48;100.00;102281.56;5936155;24;20334;-70
2022/02/08 08:27:40;;;;;;;5.65;5.45;;;;;;;7.17;100.00;102233.19;5944789;24;20012;-69
2022/02/08 08:30:09;;;;;;;4.15;3.95;;;;;;;7.59;100.00;102270.06;5941466;24;20051;-70
2022/02/08 08:32:39;;;;;;;3.70;3.60;;;;;;;7.50;100.00;102245.84;5952166;24;20050;-69
2022/02/08 08:35:07;;;;;;;3.95;3.80;;;;;;;7.19;100.00;102202.69;5943027;24;20024;-70
2022/02/08 08:37:39;;;;;;;5.10;4.90;;;;;;;7.07;100.00;102176.78;5959666;23;20613;-69
2022/02/08 08:40:16;;;;;;;4.10;3.90;;;;;;;7.35;100.00;102210.34;5921477;24;20360;-69
2022/02/08 08:43:05;;;;;;;5.43;5.22;;;;;;;7.79;100.00;102285.44;5957210;24;20038;-69
2022/02/08 08:48:44;;;;;;;4.38;4.18;;;;;;;7.86;99.83;102283.63;5967187;24;20374;-69
2022/02/08 08:53:58;;;;;;;3.72;3.63;;;;;;;7.93;99.39;102290.44;5953255;24;20020;-69
2022/02/08 08:56:25;;;;;;;3.83;3.72;;;;;;;7.76;98.53;102258.50;5943636;24;20103;-69
2022/02/08 08:58:52;;;;;;;3.80;3.70;;;;;;;7.98;97.92;102288.66;5960401;24;20332;-70
2022/02/08 09:01:18;;;;;;;3.80;3.70;;;;;;;7.81;97.99;102247.97;5943749;24;20024;-70
2022/02/08 09:03:47;;;;;;;5.55;5.35;;;;;;;8.08;97.48;102283.25;5964396;24;20054;-69
2022/02/08 09:06:20;;;;;;;3.80;3.70;;;;;;;8.14;97.52;102286.66;5941133;24;20050;-69
2022/02/08 09:08:46;;;;;;;5.22;5.03;;;;;;;7.81;96.97;102224.44;5960145;24;20027;-69
2022/02/08 09:11:42;;;;;;;3.85;3.75;;;;;;;7.74;96.49;102215.84;5942829;24;20046;-70
2022/02/08 09:14:12;;;;;;;3.78;3.67;;;;;;;8.23;96.83;102296.09;5957167;23;20019;-69
2022/02/08 09:25:28;;;;;;;4.10;3.90;;;;;;;8.12;95.67;102264.91;5962411;23;20462;-69
2022/02/08 09:30:31;;;;;;;4.25;4.05;;;;;;;8.25;94.47;102289.06;5928270;24;20106;-70
2022/02/08 09:32:57;;;;;;;4.10;3.90;;;;;;;8.47;94.16;102307.91;5945881;23;20425;-68
2022/02/08 09:35:24;;;;;;;3.80;3.70;;;;;;;8.36;94.56;102302.84;5935736;24;20032;-68
2022/02/08 09:37:50;;;;;;;4.30;4.10;;;;;;;7.99;94.65;102235.44;5959782;23;20026;-71
2022/02/08 09:40:19;;;;;;;4.10;3.90;;;;;;;8.62;94.86;102314.66;5938123;24;20012;-69
2022/02/08 09:42:47;;;;;;;5.90;5.63;;;;;;;8.65;94.23;102325.03;5956519;24;20159;-69
2022/02/08 09:45:18;;;;;;;4.10;3.90;;;;;;;8.67;93.89;102325.88;5934677;24;20012;-70
2022/02/08 09:48:07;;;;;;;5.50;5.30;;;;;;;8.67;93.77;102344.19;5962759;24;20028;-69
2022/02/08 09:50:36;;;;;;;4.88;4.68;;;;;;;8.69;93.59;102339.78;5934161;24;20008;-69
2022/02/08 09:53:06;;;;;;;3.90;3.70;;;;;;;7.52;93.65;102153.47;5961103;23;20106;-69
2022/02/08 09:55:38;;;;;;;5.30;5.00;;;;;;;8.73;93.32;102341.47;5911668;24;20354;-70
2022/02/08 09:58:06;;;;;;;4.00;3.80;;;;;;;8.63;93.18;102323.34;5962668;24;20102;-70
2022/02/08 10:00:35;;;;;;;5.55;5.35;;;;;;;8.32;93.88;102266.31;5957489;24;20295;-70
2022/02/08 10:03:07;;;;;;;3.85;3.75;;;;;;;8.22;93.62;102256.88;5917919;24;20051;-70
2022/02/08 10:05:44;;;;;;;5.72;5.53;;;;;;;8.78;92.11;102344.88;5953512;24;20018;-70
2022/02/08 10:08:12;;;;;;;6.07;5.78;;;;;;;8.43;92.59;102287.94;5942636;24;20028;-71
2022/02/08 10:10:39;;;;;;;5.63;5.43;;;;;;;8.75;93.37;102342.31;5950800;24;20026;-70
2022/02/08 10:24:10;;;;;;;4.05;3.85;;;;;;;8.76;92.66;102344.03;5943108;24;20096;-70
2022/02/08 10:26:53;;;;;;;5.93;5.65;;;;;;;8.84;91.89;102351.75;5948295;24;20355;-70
2022/02/08 10:40:18;;;;;;;4.40;4.20;;;;;;;8.64;89.83;102270.09;5941427;24;20020;-71
2022/02/08 10:42:59;;;;;;;5.72;5.47;;;;;;;9.09;89.48;102328.56;5936645;24;20049;-71
2022/02/08 10:45:31;;;;;;;4.07;3.88;;;;;;;9.12;89.31;102336.38;5959027;23;20176;-72
2022/02/08 10:48:03;;;;;;;4.20;4.00;;;;;;;8.06;89.03;102149.94;5943839;24;20497;-71
2022/02/08 10:50:32;;;;;;;4.37;4.17;;;;;;;9.25;88.71;102320.41;5936622;24;20026;-70
2022/02/08 10:53:01;;;;;;;4.25;4.05;;;;;;;9.27;88.04;102316.88;5938814;24;20016;-70
2022/02/08 10:56:05;;;;;;;4.50;4.30;;;;;;;9.21;87.67;102301.28;5957346;24;20043;-70
2022/02/08 10:58:46;;;;;;;4.35;4.15;;;;;;;9.49;87.39;102312.03;5936867;24;20034;-71
2022/02/08 11:01:19;;;;;;;4.13;3.92;;;;;;;9.27;86.09;102301.16;5938443;24;20481;-71
2022/02/08 11:04:14;;;;;;;5.57;5.38;;;;;;;9.42;86.06;102297.34;5933813;24;20030;-71
2022/02/08 11:06:44;;;;;;;5.97;5.68;;;;;;;9.28;85.36;102281.03;5963163;23;20098;-72
2022/02/08 11:12:25;;;;;;;4.40;4.20;;;;;;;9.54;84.53;102310.19;5968610;24;20022;-71
2022/02/08 11:20:15;;;;;;;4.60;4.40;;;;;;;9.65;84.20;102307.31;5941943;24;20320;-70
2022/02/08 11:23:13;;;;;;;4.35;4.15;;;;;;;9.73;83.87;102304.53;5965027;23;20030;-71
2022/02/08 11:25:42;;;;;;;5.53;5.32;;;;;;;9.59;83.31;102296.97;5939321;24;20039;-70
2022/02/08 11:28:16;;;;;;;4.50;4.30;;;;;;;9.71;83.02;102307.16;5969627;24;20137;-70
2022/02/08 11:31:19;;;;;;;5.68;5.47;;;;;;;9.36;82.71;102222.34;5939099;24;20102;-70
2022/02/08 11:53:35;;;;;;;4.45;4.25;;;;;;;9.81;82.26;102283.38;5936930;24;20031;-71
2022/02/08 11:58:41;;;;;;;4.40;4.20;;;;;;;9.72;83.17;102276.56;5946763;24;20027;-70
2022/02/08 12:01:16;;;;;;;4.18;3.97;;;;;;;9.73;82.72;102273.91;5939791;24;20028;-71
2022/02/08 12:06:48;;;;;;;3.90;3.78;;;;;;;9.43;82.40;102206.50;5937543;24;20235;-70
2022/02/08 12:09:32;;;;;;;4.28;4.07;;;;;;;9.87;82.49;102281.47;5962073;24;20266;-71
2022/02/08 12:32:09;;;;;;;5.00;4.80;;;;;;;10.14;81.39;102298.31;5938692;24;20095;-71
2022/02/08 12:56:24;;;;;;;4.15;3.95;;;;;;;9.94;80.63;102191.25;5943265;24;20504;-71
2022/02/08 13:04:47;;;;;;;4.30;4.10;;;;;;;10.01;79.54;102201.59;5962839;24;20022;-70
2022/02/08 13:17:04;;;;;;;17.20;16.40;;;;;;;10.43;78.32;102264.38;5854088;24;20345;-72
2022/02/08 14:08:09;;;;;;;5.72;5.45;;;;;;;10.41;75.90;102255.69;5934173;24;20100;-72
2022/02/08 14:14:25;;;;;;;5.28;5.07;;;;;;;10.60;75.51;102270.03;5937951;24;20023;-71
2022/02/08 14:24:33;;;;;;;4.40;4.20;;;;;;;9.96;75.80;102189.47;5939913;24;20345;-71
2022/02/08 14:29:53;;;;;;;5.95;5.65;;;;;;;10.29;75.88;102236.69;5969871;23;20088;-71
2022/02/08 14:32:29;;;;;;;4.78;4.57;;;;;;;10.44;76.11;102266.09;5937746;23;20282;-72
2022/02/08 15:10:30;;;;;;;4.30;4.10;;;;;;;10.03;77.62;102219.00;5972480;23;20103;-71
2022/02/08 15:13:00;;;;;;;4.53;4.32;;;;;;;10.44;77.89;102282.69;5917459;24;20043;-71
2022/02/08 15:16:06;;;;;;;6.25;5.95;;;;;;;10.32;78.66;102262.91;5965615;23;20087;-71
2022/02/08 15:18:33;;;;;;;5.03;4.82;;;;;;;10.34;79.02;102296.94;5953149;24;20036;-72
2022/02/08 15:21:02;;;;;;;4.40;4.20;;;;;;;9.96;79.37;102239.28;5958697;23;20365;-70
2022/02/08 15:23:33;;;;;;;6.22;5.93;;;;;;;10.24;79.37;102296.28;5943491;24;20034;-69
2022/02/08 15:26:00;;;;;;;4.40;4.20;;;;;;;10.12;80.05;102286.09;5953580;23;20017;-69
2022/02/08 15:28:28;;;;;;;4.50;4.20;;;;;;;9.92;80.12;102249.88;5940821;24;20060;-72
2022/02/08 15:30:56;;;;;;;4.13;3.92;;;;;;;10.11;80.66;102290.50;5970526;23;20036;-68
2022/02/08 15:33:23;;;;;;;4.20;4.00;;;;;;;10.17;81.20;102294.72;5917129;24;20047;-69
2022/02/08 15:35:50;;;;;;;5.00;4.80;;;;;;;10.10;81.17;102288.78;5953080;23;20223;-70
2022/02/08 15:38:17;;;;;;;4.30;4.10;;;;;;;10.01;81.69;102291.63;5920536;24;20039;-72
2022/02/08 15:40:45;;;;;;;5.57;5.38;;;;;;;9.50;82.33;102206.31;5942708;23;20050;-71
2022/02/08 15:43:13;;;;;;;4.32;4.13;;;;;;;10.02;82.58;102289.84;5955799;24;20082;-71
2022/02/08 15:45:50;;;;;;;5.65;5.45;;;;;;;9.97;82.69;102289.97;5960165;23;20016;-71
2022/02/08 15:48:21;;;;;;;4.10;3.90;;;;;;;9.99;82.40;102286.41;5934242;24;20091;-72
2022/02/08 15:51:01;;;;;;;4.95;4.75;;;;;;;9.44;82.91;102196.00;5956274;23;20491;-72
2022/02/08 16:05:05;;;;;;;4.40;4.20;;;;;;;9.76;85.50;102280.84;5945813;24;20447;-70
2022/02/08 16:07:03;;;;;;;4.53;4.32;;;;;;;9.68;86.06;102283.66;5940995;24;20103;-71
2022/02/08 16:12:36;;;;;;;4.60;4.40;;;;;;;9.57;87.08;102273.41;5928244;24;20013;-72
2022/02/08 16:18:03;;;;;;;6.15;5.85;;;;;;;9.50;88.04;102277.09;5931533;24;20110;-71
2022/02/08 16:20:42;;;;;;;4.30;4.10;;;;;;;9.46;88.33;102296.38;5957504;23;20028;-72
2022/02/08 16:28:36;;;;;;;4.15;3.95;;;;;;;9.47;88.09;102298.09;5952316;23;20110;-71
2022/02/08 16:45:55;;;;;;;5.15;4.93;;;;;;;8.72;87.63;102174.84;5953496;23;20016;-71
2022/02/08 16:53:06;;;;;;;4.45;4.25;;;;;;;8.67;88.97;102194.16;5954089;23;20062;-70
2022/02/08 16:58:26;;;;;;;4.07;3.88;;;;;;;8.77;88.90;102217.50;5958861;23;20570;-69
2022/02/08 17:00:57;;;;;;;4.40;4.20;;;;;;;8.91;89.00;102240.78;5912080;24;20404;-69
2022/02/08 17:03:43;;;;;;;6.10;5.80;;;;;;;9.12;89.59;102278.75;5956059;23;20019;-70
2022/02/08 17:06:10;;;;;;;4.60;4.40;;;;;;;8.55;89.07;102195.25;5937218;24;20071;-69
2022/02/08 17:08:37;;;;;;;6.75;6.45;;;;;;;9.23;89.35;102327.44;5960165;23;20039;-69
2022/02/08 17:11:04;;;;;;;4.20;4.00;;;;;;;9.24;89.12;102308.19;5936129;24;20026;-68
2022/02/08 17:46:20;;;;;;;4.18;3.97;;;;;;;9.17;88.92;102325.81;5952305;23;20528;-69
2022/02/08 17:48:48;;;;;;;6.05;5.75;;;;;;;9.17;88.74;102331.03;5956755;23;20086;-69
2022/02/08 17:51:14;;;;;;;4.53;4.32;;;;;;;9.18;88.95;102320.53;5927374;24;20042;-70
2022/02/08 17:54:01;;;;;;;4.95;4.70;;;;;;;8.43;88.55;102219.06;5955441;23;20028;-68
2022/02/08 17:56:27;;;;;;;4.75;4.43;;;;;;;9.12;88.97;102352.09;5957642;23;20208;-68
2022/02/08 17:59:00;;;;;;;4.22;4.03;;;;;;;8.85;88.69;102306.34;5932439;24;20028;-68
2022/02/08 18:01:26;;;;;;;4.40;4.20;;;;;;;8.79;88.62;102309.94;5955163;23;20308;-70
2022/02/08 18:03:53;;;;;;;4.30;4.10;;;;;;;8.43;89.10;102232.13;5933541;24;20091;-69
2022/02/08 18:06:19;;;;;;;4.50;4.30;;;;;;;8.55;88.77;102269.38;5951679;23;20044;-68
2022/02/08 18:08:46;;;;;;;6.28;5.97;;;;;;;9.10;88.72;102368.72;5907134;24;20099;-68
2022/02/08 18:11:12;;;;;;;4.10;3.90;;;;;;;9.10;88.89;102351.28;5957546;23;20036;-67
2022/02/08 18:13:41;;;;;;;5.97;5.68;;;;;;;8.67;88.89;102281.38;5931852;24;20036;-68
2022/02/08 18:16:08;;;;;;;5.93;5.65;;;;;;;8.96;89.18;102335.81;5960102;23;20075;-69
2022/02/08 18:18:41;;;;;;;6.15;5.85;;;;;;;9.11;88.99;102371.31;5942193;24;20534;-68
2022/02/08 18:21:17;;;;;;;4.30;4.10;;;;;;;8.88;89.14;102326.38;5954972;23;20395;-68
2022/02/08 18:56:46;;;;;;;4.60;4.40;;;;;;;9.01;89.53;102361.91;5961340;23;20054;-69